Time;durP1;ratioP1;P1;durP2;ratioP2;P2;SDS_P1;SDS_P2;PMS_P1;PMS_P2;Temp;Humidity;BMP_temperature;BMP_pressure;BME280_temperature;BME280_humidity;BME280_pressure;Samples;Min_cycle;Max_cycle;Signal;HPM_P1;HPM_P2
2024/02/24 00:02:09;;;;;;;1.5;1.4;;;;;;;;;;;;;
2024/02/24 00:04:34;;;;;;;1.2;1.1;;;;;;;;;;;;;
2024/02/24 00:06:59;;;;;;;1.3;1.2;;;;;;;;;;;;;
2024/02/24 00:09:24;;;;;;;1.3;1.2;;;;;;;;;;;;;
2024/02/24 00:11:49;;;;;;;2.2;1.3;;;;;;;;;;;;;
2024/02/24 00:14:14;;;;;;;1.6;1.4;;;;;;;;;;;;;
2024/02/24 00:16:39;;;;;;;1.6;1.3;;;;;;;;;;;;;
2024/02/24 00:19:05;;;;;;;2.2;1.6;;;;;;;;;;;;;
2024/02/24 00:21:30;;;;;;;1.4;1.2;;;;;;;;;;;;;
2024/02/24 00:23:55;;;;;;;1.5;1.2;;;;;;;;;;;;;
2024/02/24 00:26:20;;;;;;;1.9;1.6;;;;;;;;;;;;;
2024/02/24 00:28:45;;;;;;;2.4;1.7;;;;;;;;;;;;;
2024/02/24 00:31:10;;;;;;;2.5;2;;;;;;;;;;;;;
2024/02/24 00:33:35;;;;;;;4.4;2.5;;;;;;;;;;;;;
2024/02/24 00:36:00;;;;;;;4.7;3.1;;;;;;;;;;;;;
2024/02/24 00:38:25;;;;;;;5.2;3.3;;;;;;;;;;;;;
2024/02/24 00:40:50;;;;;;;5.3;3.2;;;;;;;;;;;;;
2024/02/24 00:43:15;;;;;;;26.4;20.1;;;;;;;;;;;;;
2024/02/24 00:45:40;;;;;;;6.5;5.5;;;;;;;;;;;;;
2024/02/24 00:48:06;;;;;;;3.2;2.9;;;;;;;;;;;;;
2024/02/24 00:50:31;;;;;;;2.1;1.8;;;;;;;;;;;;;
2024/02/24 00:52:56;;;;;;;1.8;1.7;;;;;;;;;;;;;
2024/02/24 00:55:21;;;;;;;3.1;1.9;;;;;;;;;;;;;
2024/02/24 00:57:46;;;;;;;1.9;1.5;;;;;;;;;;;;;
2024/02/24 01:00:11;;;;;;;1.8;1.7;;;;;;;;;;;;;
2024/02/24 01:02:36;;;;;;;1.8;1.4;;;;;;;;;;;;;
2024/02/24 01:05:01;;;;;;;1.9;1.6;;;;;;;;;;;;;
2024/02/24 01:07:26;;;;;;;1.4;1.3;;;;;;;;;;;;;
2024/02/24 01:09:52;;;;;;;1.6;1.4;;;;;;;;;;;;;
2024/02/24 01:12:17;;;;;;;2.1;1.5;;;;;;;;;;;;;
2024/02/24 01:14:42;;;;;;;2.2;1.9;;;;;;;;;;;;;
2024/02/24 01:17:07;;;;;;;3.2;2.9;;;;;;;;;;;;;
2024/02/24 01:19:32;;;;;;;2.5;2.2;;;;;;;;;;;;;
2024/02/24 01:21:58;;;;;;;2.4;1.9;;;;;;;;;;;;;
2024/02/24 01:24:22;;;;;;;2.5;1.8;;;;;;;;;;;;;
2024/02/24 01:26:48;;;;;;;2;1.4;;;;;;;;;;;;;
2024/02/24 01:29:13;;;;;;;1.9;1.3;;;;;;;;;;;;;
2024/02/24 01:31:38;;;;;;;1.5;1.2;;;;;;;;;;;;;
2024/02/24 01:34:03;;;;;;;1.4;1.1;;;;;;;;;;;;;
2024/02/24 01:36:28;;;;;;;2.5;1.5;;;;;;;;;;;;;
2024/02/24 01:38:54;;;;;;;2;1.7;;;;;;;;;;;;;
2024/02/24 01:41:18;;;;;;;2.1;1.7;;;;;;;;;;;;;
2024/02/24 01:43:44;;;;;;;3.1;1.8;;;;;;;;;;;;;
2024/02/24 01:46:12;;;;;;;5.1;2.6;;;;;;;;;;;;;
2024/02/24 01:48:34;;;;;;;6.5;3;;;;;;;;;;;;;
2024/02/24 01:50:59;;;;;;;3.7;2.5;;;;;;;;;;;;;
2024/02/24 01:53:24;;;;;;;3.8;2.4;;;;;;;;;;;;;
2024/02/24 01:55:49;;;;;;;3.7;2.2;;;;;;;;;;;;;
2024/02/24 01:58:14;;;;;;;3.6;2.6;;;;;;;;;;;;;
2024/02/24 02:00:39;;;;;;;2.5;1.9;;;;;;;;;;;;;
2024/02/24 02:03:04;;;;;;;2.2;1.6;;;;;;;;;;;;;
2024/02/24 02:05:30;;;;;;;3.8;3.2;;;;;;;;;;;;;
2024/02/24 02:07:55;;;;;;;1.7;1.6;;;;;;;;;;;;;
2024/02/24 02:10:20;;;;;;;1.9;1.6;;;;;;;;;;;;;
2024/02/24 02:12:45;;;;;;;2.4;1.5;;;;;;;;;;;;;
2024/02/24 02:15:10;;;;;;;1.7;1.6;;;;;;;;;;;;;
2024/02/24 02:17:36;;;;;;;1.3;1.2;;;;;;;;;;;;;
2024/02/24 02:20:00;;;;;;;0.9;0.9;;;;;;;;;;;;;
2024/02/24 02:22:25;;;;;;;1.5;1;;;;;;;;;;;;;
2024/02/24 02:24:51;;;;;;;1.3;1.2;;;;;;;;;;;;;
2024/02/24 02:27:16;;;;;;;1.8;1.5;;;;;;;;;;;;;
2024/02/24 02:29:41;;;;;;;2;1.7;;;;;;;;;;;;;
2024/02/24 02:32:07;;;;;;;5.4;2.3;;;;;;;;;;;;;
2024/02/24 02:34:31;;;;;;;5.6;3.4;;;;;;;;;;;;;
2024/02/24 02:36:56;;;;;;;5.3;3.3;;;;;;;;;;;;;
2024/02/24 02:39:21;;;;;;;5.5;3.3;;;;;;;;;;;;;
2024/02/24 02:41:46;;;;;;;5.2;2.9;;;;;;;;;;;;;
2024/02/24 02:44:12;;;;;;;4.4;2.5;;;;;;;;;;;;;
2024/02/24 02:46:37;;;;;;;3.7;2.3;;;;;;;;;;;;;
2024/02/24 02:49:02;;;;;;;2.8;1.9;;;;;;;;;;;;;
2024/02/24 02:51:27;;;;;;;2.4;1.6;;;;;;;;;;;;;
2024/02/24 02:53:52;;;;;;;1.5;1.4;;;;;;;;;;;;;
2024/02/24 02:56:20;;;;;;;1.8;1.5;;;;;;;;;;;;;
2024/02/24 02:58:42;;;;;;;1.5;1.4;;;;;;;;;;;;;
2024/02/24 03:01:07;;;;;;;3;1.6;;;;;;;;;;;;;
2024/02/24 03:03:33;;;;;;;1.6;1.2;;;;;;;;;;;;;
2024/02/24 03:05:58;;;;;;;1.4;1.3;;;;;;;;;;;;;
2024/02/24 03:08:23;;;;;;;1.9;1.2;;;;;;;;;;;;;
2024/02/24 03:10:48;;;;;;;1.2;1.1;;;;;;;;;;;;;
2024/02/24 03:13:13;;;;;;;2;1.3;;;;;;;;;;;;;
2024/02/24 03:15:38;;;;;;;1.9;1.4;;;;;;;;;;;;;
2024/02/24 03:18:03;;;;;;;2.1;1.5;;;;;;;;;;;;;
2024/02/24 03:20:28;;;;;;;2.3;1.7;;;;;;;;;;;;;
2024/02/24 03:22:54;;;;;;;4.9;2.1;;;;;;;;;;;;;
2024/02/24 03:25:18;;;;;;;5.4;2.7;;;;;;;;;;;;;
2024/02/24 03:27:43;;;;;;;4;2.4;;;;;;;;;;;;;
2024/02/24 03:30:09;;;;;;;5.8;3;;;;;;;;;;;;;
2024/02/24 03:32:33;;;;;;;3.8;2.4;;;;;;;;;;;;;
2024/02/24 03:34:59;;;;;;;7.6;3.5;;;;;;;;;;;;;
2024/02/24 03:37:24;;;;;;;4.7;2.4;;;;;;;;;;;;;
2024/02/24 03:39:49;;;;;;;3.7;2.6;;;;;;;;;;;;;
2024/02/24 03:42:14;;;;;;;3.9;2.1;;;;;;;;;;;;;
2024/02/24 03:44:39;;;;;;;4.3;2.7;;;;;;;;;;;;;
2024/02/24 03:47:04;;;;;;;4;2.4;;;;;;;;;;;;;
2024/02/24 03:49:30;;;;;;;3.1;2.2;;;;;;;;;;;;;
2024/02/24 03:51:54;;;;;;;3.1;2.3;;;;;;;;;;;;;
2024/02/24 03:54:21;;;;;;;4.9;2.8;;;;;;;;;;;;;
2024/02/24 03:56:45;;;;;;;2.8;2.1;;;;;;;;;;;;;
2024/02/24 03:59:10;;;;;;;2;1.7;;;;;;;;;;;;;
2024/02/24 04:02:31;;;;;;;3.4;2.2;;;;;;;;;;;;;
2024/02/24 04:04:56;;;;;;;2.7;2.3;;;;;;;;;;;;;
2024/02/24 04:07:21;;;;;;;3.6;2.4;;;;;;;;;;;;;
2024/02/24 04:09:46;;;;;;;4;2.4;;;;;;;;;;;;;
2024/02/24 04:12:11;;;;;;;3.5;2.7;;;;;;;;;;;;;
2024/02/24 04:14:37;;;;;;;3.8;2.7;;;;;;;;;;;;;
2024/02/24 04:17:02;;;;;;;2.7;1.8;;;;;;;;;;;;;
2024/02/24 04:19:27;;;;;;;2;1.7;;;;;;;;;;;;;
2024/02/24 04:21:52;;;;;;;2.4;1.5;;;;;;;;;;;;;
2024/02/24 04:24:17;;;;;;;1.7;1.5;;;;;;;;;;;;;
2024/02/24 04:26:42;;;;;;;1.6;1.4;;;;;;;;;;;;;
2024/02/24 04:29:08;;;;;;;3.8;2.6;;;;;;;;;;;;;
2024/02/24 04:31:33;;;;;;;1.3;1.2;;;;;;;;;;;;;
2024/02/24 04:33:58;;;;;;;1.3;1.1;;;;;;;;;;;;;
2024/02/24 04:36:23;;;;;;;2.4;1.4;;;;;;;;;;;;;
2024/02/24 04:38:49;;;;;;;2.6;1.1;;;;;;;;;;;;;
2024/02/24 04:41:13;;;;;;;1.9;1.4;;;;;;;;;;;;;
2024/02/24 04:43:39;;;;;;;2.4;1.5;;;;;;;;;;;;;
2024/02/24 04:46:04;;;;;;;2.9;1.9;;;;;;;;;;;;;
2024/02/24 04:48:29;;;;;;;4.6;2.1;;;;;;;;;;;;;
2024/02/24 04:50:54;;;;;;;2.8;1.8;;;;;;;;;;;;;
2024/02/24 04:53:19;;;;;;;1.7;1.6;;;;;;;;;;;;;
2024/02/24 04:55:44;;;;;;;2.8;2;;;;;;;;;;;;;
2024/02/24 04:58:09;;;;;;;5.9;3;;;;;;;;;;;;;
2024/02/24 05:00:34;;;;;;;4.3;2.9;;;;;;;;;;;;;
2024/02/24 05:03:00;;;;;;;5.9;3.5;;;;;;;;;;;;;
2024/02/24 05:05:24;;;;;;;5.2;3.7;;;;;;;;;;;;;
2024/02/24 05:07:50;;;;;;;4;2.3;;;;;;;;;;;;;
2024/02/24 05:10:15;;;;;;;3.4;1.8;;;;;;;;;;;;;
2024/02/24 05:12:42;;;;;;;2;1.7;;;;;;;;;;;;;
2024/02/24 05:15:05;;;;;;;1.8;1.6;;;;;;;;;;;;;
2024/02/24 05:17:30;;;;;;;1.6;1.5;;;;;;;;;;;;;
2024/02/24 05:19:55;;;;;;;2;1.8;;;;;;;;;;;;;
2024/02/24 05:22:20;;;;;;;5.4;3;;;;;;;;;;;;;
2024/02/24 05:24:45;;;;;;;5.4;3.5;;;;;;;;;;;;;
2024/02/24 05:27:10;;;;;;;4.2;3;;;;;;;;;;;;;
2024/02/24 05:29:35;;;;;;;3.8;2.2;;;;;;;;;;;;;
2024/02/24 05:32:00;;;;;;;3.3;2.2;;;;;;;;;;;;;
2024/02/24 05:34:26;;;;;;;3.5;2.6;;;;;;;;;;;;;
2024/02/24 05:36:51;;;;;;;3.6;2.3;;;;;;;;;;;;;
2024/02/24 05:39:16;;;;;;;2.3;2.1;;;;;;;;;;;;;
2024/02/24 05:41:41;;;;;;;1.8;1.6;;;;;;;;;;;;;
2024/02/24 05:44:06;;;;;;;1.4;1.2;;;;;;;;;;;;;
2024/02/24 05:46:31;;;;;;;1.8;1;;;;;;;;;;;;;
2024/02/24 05:48:57;;;;;;;1.6;1.4;;;;;;;;;;;;;
2024/02/24 05:51:24;;;;;;;1.1;0.8;;;;;;;;;;;;;
2024/02/24 05:53:47;;;;;;;1;0.9;;;;;;;;;;;;;
2024/02/24 05:56:12;;;;;;;1;0.9;;;;;;;;;;;;;
2024/02/24 05:58:37;;;;;;;0.8;0.8;;;;;;;;;;;;;
2024/02/24 06:01:03;;;;;;;1.9;1;;;;;;;;;;;;;
2024/02/24 06:03:28;;;;;;;1.5;1.3;;;;;;;;;;;;;
2024/02/24 06:05:53;;;;;;;1.2;0.9;;;;;;;;;;;;;
2024/02/24 06:08:18;;;;;;;1.1;1;;;;;;;;;;;;;
2024/02/24 06:10:43;;;;;;;0.9;0.9;;;;;;;;;;;;;
2024/02/24 06:13:08;;;;;;;0.8;0.8;;;;;;;;;;;;;
2024/02/24 06:15:33;;;;;;;1.6;1.2;;;;;;;;;;;;;
2024/02/24 06:17:58;;;;;;;1;1;;;;;;;;;;;;;
2024/02/24 06:20:23;;;;;;;1.3;1.2;;;;;;;;;;;;;
2024/02/24 06:22:48;;;;;;;2.9;2.2;;;;;;;;;;;;;
2024/02/24 06:25:13;;;;;;;5.3;3.2;;;;;;;;;;;;;
2024/02/24 06:27:39;;;;;;;4.6;3.3;;;;;;;;;;;;;
2024/02/24 06:30:04;;;;;;;3.7;2.9;;;;;;;;;;;;;
2024/02/24 06:32:29;;;;;;;3.3;2.8;;;;;;;;;;;;;
2024/02/24 06:34:54;;;;;;;4.1;2.8;;;;;;;;;;;;;
2024/02/24 06:37:20;;;;;;;5.5;4;;;;;;;;;;;;;
2024/02/24 06:39:44;;;;;;;6.7;4.6;;;;;;;;;;;;;
2024/02/24 06:42:09;;;;;;;5.7;4.2;;;;;;;;;;;;;
2024/02/24 06:44:35;;;;;;;6.1;4.2;;;;;;;;;;;;;
2024/02/24 06:47:00;;;;;;;5.7;3.6;;;;;;;;;;;;;
2024/02/24 06:49:25;;;;;;;6.2;3.9;;;;;;;;;;;;;
2024/02/24 06:51:50;;;;;;;8.1;4.4;;;;;;;;;;;;;
2024/02/24 06:54:15;;;;;;;6.7;4.6;;;;;;;;;;;;;
2024/02/24 06:56:40;;;;;;;6.9;4.6;;;;;;;;;;;;;
2024/02/24 06:59:06;;;;;;;9.6;5.4;;;;;;;;;;;;;
2024/02/24 07:01:30;;;;;;;7.1;4.6;;;;;;;;;;;;;
2024/02/24 07:03:55;;;;;;;9;5.1;;;;;;;;;;;;;
2024/02/24 07:06:21;;;;;;;5.1;3.9;;;;;;;;;;;;;
2024/02/24 07:08:46;;;;;;;3.1;2.3;;;;;;;;;;;;;
2024/02/24 07:11:11;;;;;;;8.4;5.1;;;;;;;;;;;;;
2024/02/24 07:13:36;;;;;;;7.1;4.2;;;;;;;;;;;;;
2024/02/24 07:16:01;;;;;;;12.8;10.5;;;;;;;;;;;;;
2024/02/24 07:18:26;;;;;;;3.5;2.6;;;;;;;;;;;;;
2024/02/24 07:20:51;;;;;;;2.5;2.1;;;;;;;;;;;;;
2024/02/24 07:23:16;;;;;;;2.9;2;;;;;;;;;;;;;
2024/02/24 07:25:42;;;;;;;2.3;1.8;;;;;;;;;;;;;
2024/02/24 07:28:07;;;;;;;3.5;2.5;;;;;;;;;;;;;
2024/02/24 07:30:32;;;;;;;2.5;1.8;;;;;;;;;;;;;
2024/02/24 07:32:57;;;;;;;1.4;1.3;;;;;;;;;;;;;
2024/02/24 07:35:22;;;;;;;1.8;1.4;;;;;;;;;;;;;
2024/02/24 07:37:49;;;;;;;2.1;1.6;;;;;;;;;;;;;
2024/02/24 07:40:13;;;;;;;2.4;1.8;;;;;;;;;;;;;
2024/02/24 07:42:38;;;;;;;2.3;1.7;;;;;;;;;;;;;
2024/02/24 07:45:03;;;;;;;1.5;1.2;;;;;;;;;;;;;
2024/02/24 07:47:28;;;;;;;3;1.6;;;;;;;;;;;;;
2024/02/24 07:49:53;;;;;;;2.2;1.6;;;;;;;;;;;;;
2024/02/24 07:52:18;;;;;;;1.2;0.9;;;;;;;;;;;;;
2024/02/24 07:54:43;;;;;;;3.6;2.8;;;;;;;;;;;;;
2024/02/24 07:57:08;;;;;;;1.8;1.6;;;;;;;;;;;;;
2024/02/24 07:59:33;;;;;;;0.7;0.7;;;;;;;;;;;;;
2024/02/24 08:01:59;;;;;;;3.7;2.5;;;;;;;;;;;;;
2024/02/24 08:04:24;;;;;;;4;3;;;;;;;;;;;;;
2024/02/24 08:06:49;;;;;;;2.6;2.2;;;;;;;;;;;;;
2024/02/24 08:09:14;;;;;;;1.7;1.4;;;;;;;;;;;;;
2024/02/24 08:11:41;;;;;;;0.8;0.6;;;;;;;;;;;;;
2024/02/24 08:14:05;;;;;;;0.8;0.8;;;;;;;;;;;;;
2024/02/24 08:16:29;;;;;;;1.1;1;;;;;;;;;;;;;
2024/02/24 08:18:54;;;;;;;1.2;1.1;;;;;;;;;;;;;
2024/02/24 08:21:19;;;;;;;1.1;0.9;;;;;;;;;;;;;
2024/02/24 08:23:45;;;;;;;1.5;0.4;;;;;;;;;;;;;
2024/02/24 08:26:10;;;;;;;0.9;0.6;;;;;;;;;;;;;
2024/02/24 08:28:35;;;;;;;0.7;0.4;;;;;;;;;;;;;
2024/02/24 08:31:01;;;;;;;1.8;0.7;;;;;;;;;;;;;
2024/02/24 08:33:25;;;;;;;1.1;1;;;;;;;;;;;;;
2024/02/24 08:35:51;;;;;;;1.3;1;;;;;;;;;;;;;
2024/02/24 08:38:16;;;;;;;0.6;0.5;;;;;;;;;;;;;
2024/02/24 08:40:40;;;;;;;0.8;0.8;;;;;;;;;;;;;
2024/02/24 08:43:06;;;;;;;0.9;0.6;;;;;;;;;;;;;
2024/02/24 08:45:31;;;;;;;1.5;0.9;;;;;;;;;;;;;
2024/02/24 08:47:56;;;;;;;1.1;1;;;;;;;;;;;;;
2024/02/24 08:50:21;;;;;;;1.1;1;;;;;;;;;;;;;
2024/02/24 08:52:46;;;;;;;1.1;1;;;;;;;;;;;;;
2024/02/24 08:55:11;;;;;;;1.1;1;;;;;;;;;;;;;
2024/02/24 08:57:36;;;;;;;1;0.9;;;;;;;;;;;;;
2024/02/24 09:00:02;;;;;;;1;0.8;;;;;;;;;;;;;
2024/02/24 09:02:26;;;;;;;0.9;0.8;;;;;;;;;;;;;
2024/02/24 09:04:52;;;;;;;1.3;1;;;;;;;;;;;;;
2024/02/24 09:07:18;;;;;;;1.1;0.7;;;;;;;;;;;;;
2024/02/24 09:09:42;;;;;;;1.8;0.9;;;;;;;;;;;;;
2024/02/24 09:12:07;;;;;;;1.4;0.9;;;;;;;;;;;;;
2024/02/24 09:14:33;;;;;;;1.4;0.8;;;;;;;;;;;;;
2024/02/24 09:16:58;;;;;;;0.9;0.9;;;;;;;;;;;;;
2024/02/24 09:19:25;;;;;;;1.5;1;;;;;;;;;;;;;
2024/02/24 09:21:48;;;;;;;1.1;1;;;;;;;;;;;;;
2024/02/24 09:24:13;;;;;;;1.2;1.1;;;;;;;;;;;;;
2024/02/24 09:26:38;;;;;;;1.2;0.8;;;;;;;;;;;;;
2024/02/24 09:29:03;;;;;;;3.6;0.9;;;;;;;;;;;;;
2024/02/24 09:31:28;;;;;;;1.2;0.9;;;;;;;;;;;;;
2024/02/24 09:33:55;;;;;;;1.1;0.8;;;;;;;;;;;;;
2024/02/24 09:36:18;;;;;;;1;0.8;;;;;;;;;;;;;
2024/02/24 09:38:44;;;;;;;1.2;0.9;;;;;;;;;;;;;
2024/02/24 09:41:08;;;;;;;0.7;0.7;;;;;;;;;;;;;
2024/02/24 09:43:33;;;;;;;0.7;0.7;;;;;;;;;;;;;
2024/02/24 09:45:59;;;;;;;3.2;0.8;;;;;;;;;;;;;
2024/02/24 09:48:23;;;;;;;1.4;0.6;;;;;;;;;;;;;
2024/02/24 09:50:49;;;;;;;2.3;0.5;;;;;;;;;;;;;
2024/02/24 09:53:14;;;;;;;1;0.6;;;;;;;;;;;;;
2024/02/24 09:55:39;;;;;;;0.7;0.6;;;;;;;;;;;;;
2024/02/24 09:58:06;;;;;;;0.8;0.7;;;;;;;;;;;;;
2024/02/24 10:00:29;;;;;;;0.9;0.6;;;;;;;;;;;;;
2024/02/24 10:02:54;;;;;;;0.7;0.7;;;;;;;;;;;;;
2024/02/24 10:05:19;;;;;;;1.3;0.8;;;;;;;;;;;;;
2024/02/24 10:07:44;;;;;;;1.6;1.2;;;;;;;;;;;;;
2024/02/24 10:10:10;;;;;;;1.3;1;;;;;;;;;;;;;
2024/02/24 10:12:35;;;;;;;2.8;1.6;;;;;;;;;;;;;
2024/02/24 10:15:00;;;;;;;2.2;1.1;;;;;;;;;;;;;
2024/02/24 10:17:26;;;;;;;1.5;1.2;;;;;;;;;;;;;
2024/02/24 10:19:50;;;;;;;1.2;1.1;;;;;;;;;;;;;
2024/02/24 10:22:15;;;;;;;1.6;1.2;;;;;;;;;;;;;
2024/02/24 10:24:41;;;;;;;2.4;1.4;;;;;;;;;;;;;
2024/02/24 10:27:06;;;;;;;2.4;1.8;;;;;;;;;;;;;
2024/02/24 10:29:31;;;;;;;2.1;1.5;;;;;;;;;;;;;
2024/02/24 10:31:56;;;;;;;2.7;1.3;;;;;;;;;;;;;
2024/02/24 10:34:22;;;;;;;2.9;1.5;;;;;;;;;;;;;
2024/02/24 10:36:46;;;;;;;2.2;1;;;;;;;;;;;;;
2024/02/24 10:39:12;;;;;;;1.3;1.2;;;;;;;;;;;;;
2024/02/24 10:41:36;;;;;;;2.3;1;;;;;;;;;;;;;
2024/02/24 10:44:02;;;;;;;1.3;0.9;;;;;;;;;;;;;
2024/02/24 10:46:27;;;;;;;1.3;1.1;;;;;;;;;;;;;
2024/02/24 10:48:52;;;;;;;3.4;1.2;;;;;;;;;;;;;
2024/02/24 10:51:17;;;;;;;3.2;1.4;;;;;;;;;;;;;
2024/02/24 10:53:42;;;;;;;2.1;1.5;;;;;;;;;;;;;
2024/02/24 10:56:07;;;;;;;2.8;1.4;;;;;;;;;;;;;
2024/02/24 10:58:35;;;;;;;1.4;1.3;;;;;;;;;;;;;
2024/02/24 11:00:57;;;;;;;2.2;1.7;;;;;;;;;;;;;
2024/02/24 11:03:22;;;;;;;1.8;1.4;;;;;;;;;;;;;
2024/02/24 11:05:48;;;;;;;2.9;1.5;;;;;;;;;;;;;
2024/02/24 11:08:12;;;;;;;0.7;0.7;;;;;;;;;;;;;
2024/02/24 11:10:38;;;;;;;2.2;1.1;;;;;;;;;;;;;
2024/02/24 11:13:03;;;;;;;1.7;1.3;;;;;;;;;;;;;
2024/02/24 11:15:28;;;;;;;1.6;0.9;;;;;;;;;;;;;
2024/02/24 11:17:55;;;;;;;1.6;1;;;;;;;;;;;;;
2024/02/24 11:20:18;;;;;;;1.5;1.3;;;;;;;;;;;;;
2024/02/24 11:22:43;;;;;;;0.9;0.8;;;;;;;;;;;;;
2024/02/24 11:25:08;;;;;;;2.3;1.2;;;;;;;;;;;;;
2024/02/24 11:27:34;;;;;;;4.1;1.1;;;;;;;;;;;;;
2024/02/24 11:29:59;;;;;;;1.3;1;;;;;;;;;;;;;
2024/02/24 11:32:24;;;;;;;1;0.8;;;;;;;;;;;;;
2024/02/24 11:34:49;;;;;;;1.2;0.9;;;;;;;;;;;;;
2024/02/24 11:37:14;;;;;;;1.4;0.9;;;;;;;;;;;;;
2024/02/24 11:39:42;;;;;;;1.1;1;;;;;;;;;;;;;
2024/02/24 11:42:04;;;;;;;3.2;1.2;;;;;;;;;;;;;
2024/02/24 11:44:29;;;;;;;1.8;1.1;;;;;;;;;;;;;
2024/02/24 11:46:54;;;;;;;1.2;1.1;;;;;;;;;;;;;
2024/02/24 11:49:19;;;;;;;1.1;1;;;;;;;;;;;;;
2024/02/24 11:51:45;;;;;;;1.6;0.9;;;;;;;;;;;;;
2024/02/24 11:54:10;;;;;;;1.4;1;;;;;;;;;;;;;
2024/02/24 11:56:36;;;;;;;2;0.9;;;;;;;;;;;;;
2024/02/24 11:59:00;;;;;;;1.3;0.7;;;;;;;;;;;;;
2024/02/24 12:01:25;;;;;;;2.3;0.9;;;;;;;;;;;;;
2024/02/24 12:03:51;;;;;;;2;0.9;;;;;;;;;;;;;
2024/02/24 12:06:15;;;;;;;1.3;0.9;;;;;;;;;;;;;
2024/02/24 12:08:42;;;;;;;1.2;0.9;;;;;;;;;;;;;
2024/02/24 12:11:06;;;;;;;0.8;0.8;;;;;;;;;;;;;
2024/02/24 12:13:31;;;;;;;1.6;1;;;;;;;;;;;;;
2024/02/24 12:15:57;;;;;;;1.2;0.8;;;;;;;;;;;;;
2024/02/24 12:18:21;;;;;;;1.3;0.9;;;;;;;;;;;;;
2024/02/24 12:20:48;;;;;;;1.6;1.1;;;;;;;;;;;;;
2024/02/24 12:23:11;;;;;;;1.6;1;;;;;;;;;;;;;
2024/02/24 12:25:36;;;;;;;0.8;0.8;;;;;;;;;;;;;
2024/02/24 12:28:02;;;;;;;0.9;0.9;;;;;;;;;;;;;
2024/02/24 12:30:26;;;;;;;1.2;0.8;;;;;;;;;;;;;
2024/02/24 12:32:51;;;;;;;0.6;0.6;;;;;;;;;;;;;
2024/02/24 12:35:17;;;;;;;1.1;1;;;;;;;;;;;;;
2024/02/24 12:37:42;;;;;;;0.7;0.7;;;;;;;;;;;;;
2024/02/24 12:40:07;;;;;;;1.3;0.6;;;;;;;;;;;;;
2024/02/24 12:42:38;;;;;;;0.8;0.7;;;;;;;;;;;;;
2024/02/24 12:44:59;;;;;;;1;1;;;;;;;;;;;;;
2024/02/24 12:47:22;;;;;;;0.8;0.8;;;;;;;;;;;;;
2024/02/24 12:49:47;;;;;;;1.1;0.9;;;;;;;;;;;;;
2024/02/24 12:52:12;;;;;;;1.8;0.7;;;;;;;;;;;;;
2024/02/24 12:54:37;;;;;;;0.9;0.8;;;;;;;;;;;;;
2024/02/24 12:57:03;;;;;;;1.1;0.8;;;;;;;;;;;;;
2024/02/24 12:59:28;;;;;;;1.2;0.8;;;;;;;;;;;;;
2024/02/24 13:02:21;;;;;;;0.9;0.8;;;;;;;;;;;;;
2024/02/24 13:04:54;;;;;;;1.3;0.7;;;;;;;;;;;;;
2024/02/24 13:07:26;;;;;;;0.8;0.8;;;;;;;;;;;;;
2024/02/24 13:09:58;;;;;;;0.9;0.7;;;;;;;;;;;;;
2024/02/24 13:12:30;;;;;;;1;0.9;;;;;;;;;;;;;
2024/02/24 13:15:03;;;;;;;1.1;0.6;;;;;;;;;;;;;
2024/02/24 13:17:36;;;;;;;0.8;0.7;;;;;;;;;;;;;
2024/02/24 13:20:02;;;;;;;1;0.8;;;;;;;;;;;;;
2024/02/24 13:22:26;;;;;;;1.1;0.8;;;;;;;;;;;;;
2024/02/24 13:24:51;;;;;;;0.9;0.7;;;;;;;;;;;;;
2024/02/24 13:27:16;;;;;;;1.5;0.9;;;;;;;;;;;;;
2024/02/24 13:29:41;;;;;;;0.8;0.8;;;;;;;;;;;;;
2024/02/24 13:32:07;;;;;;;1.4;0.7;;;;;;;;;;;;;
2024/02/24 13:34:32;;;;;;;1.5;1;;;;;;;;;;;;;
2024/02/24 13:36:57;;;;;;;0.6;0.5;;;;;;;;;;;;;
2024/02/24 13:39:22;;;;;;;1;0.6;;;;;;;;;;;;;
2024/02/24 13:41:49;;;;;;;2.3;1.5;;;;;;;;;;;;;
2024/02/24 13:44:13;;;;;;;1.5;1;;;;;;;;;;;;;
2024/02/24 13:46:38;;;;;;;1.8;1.6;;;;;;;;;;;;;
2024/02/24 13:49:02;;;;;;;0.4;0.4;;;;;;;;;;;;;
2024/02/24 13:51:27;;;;;;;2.2;1;;;;;;;;;;;;;
2024/02/24 13:53:53;;;;;;;1.9;0.7;;;;;;;;;;;;;
2024/02/24 13:56:19;;;;;;;0.7;0.7;;;;;;;;;;;;;
2024/02/24 13:58:44;;;;;;;1.5;0.7;;;;;;;;;;;;;
2024/02/24 14:01:09;;;;;;;0.7;0.6;;;;;;;;;;;;;
2024/02/24 14:03:34;;;;;;;0.6;0.6;;;;;;;;;;;;;
2024/02/24 14:05:59;;;;;;;0.8;0.8;;;;;;;;;;;;;
2024/02/24 14:08:24;;;;;;;1.2;0.5;;;;;;;;;;;;;
2024/02/24 14:10:49;;;;;;;2.3;0.8;;;;;;;;;;;;;
2024/02/24 14:13:14;;;;;;;2.9;1.1;;;;;;;;;;;;;
2024/02/24 14:15:41;;;;;;;2.4;0.8;;;;;;;;;;;;;
2024/02/24 14:18:05;;;;;;;1.8;0.6;;;;;;;;;;;;;
2024/02/24 14:20:31;;;;;;;0.7;0.6;;;;;;;;;;;;;
2024/02/24 14:22:55;;;;;;;0.6;0.5;;;;;;;;;;;;;
2024/02/24 14:25:24;;;;;;;0.6;0.6;;;;;;;;;;;;;
2024/02/24 14:27:50;;;;;;;1.5;0.9;;;;;;;;;;;;;
2024/02/24 14:30:14;;;;;;;1.7;0.9;;;;;;;;;;;;;
2024/02/24 14:32:39;;;;;;;1.5;0.7;;;;;;;;;;;;;
2024/02/24 14:35:08;;;;;;;0.8;0.8;;;;;;;;;;;;;
2024/02/24 14:37:33;;;;;;;0.7;0.7;;;;;;;;;;;;;
2024/02/24 14:39:58;;;;;;;1.1;0.8;;;;;;;;;;;;;
2024/02/24 14:42:24;;;;;;;1.4;0.8;;;;;;;;;;;;;
2024/02/24 14:44:48;;;;;;;0.6;0.6;;;;;;;;;;;;;
2024/02/24 14:47:13;;;;;;;1.4;0.8;;;;;;;;;;;;;
2024/02/24 14:49:39;;;;;;;1.7;0.9;;;;;;;;;;;;;
2024/02/24 14:52:06;;;;;;;1.8;1;;;;;;;;;;;;;
2024/02/24 14:54:29;;;;;;;1;0.9;;;;;;;;;;;;;
2024/02/24 14:56:54;;;;;;;1;0.8;;;;;;;;;;;;;
2024/02/24 14:59:19;;;;;;;1.2;0.8;;;;;;;;;;;;;
2024/02/24 15:01:44;;;;;;;1.9;1.5;;;;;;;;;;;;;
2024/02/24 15:04:09;;;;;;;1.7;1.1;;;;;;;;;;;;;
2024/02/24 15:06:34;;;;;;;1.4;1.1;;;;;;;;;;;;;
2024/02/24 15:08:59;;;;;;;1.7;1.3;;;;;;;;;;;;;
2024/02/24 15:11:25;;;;;;;1.8;0.9;;;;;;;;;;;;;
2024/02/24 15:13:50;;;;;;;1.7;1.3;;;;;;;;;;;;;
2024/02/24 15:16:15;;;;;;;1.7;1.2;;;;;;;;;;;;;
2024/02/24 15:18:43;;;;;;;1.6;1.1;;;;;;;;;;;;;
2024/02/24 15:21:08;;;;;;;1.1;1;;;;;;;;;;;;;
2024/02/24 15:23:33;;;;;;;2.4;1.6;;;;;;;;;;;;;
2024/02/24 15:25:58;;;;;;;2.8;1.7;;;;;;;;;;;;;
2024/02/24 15:28:26;;;;;;;2.9;1.9;;;;;;;;;;;;;
2024/02/24 15:30:52;;;;;;;2.7;1.9;;;;;;;;;;;;;
2024/02/24 15:33:16;;;;;;;1.6;0.9;;;;;;;;;;;;;
2024/02/24 15:35:41;;;;;;;1.6;0.9;;;;;;;;;;;;;
2024/02/24 15:38:07;;;;;;;0.6;0.6;;;;;;;;;;;;;
2024/02/24 15:40:32;;;;;;;1.5;0.7;;;;;;;;;;;;;
2024/02/24 15:42:57;;;;;;;2.4;1.7;;;;;;;;;;;;;
2024/02/24 15:45:23;;;;;;;2;1.4;;;;;;;;;;;;;
2024/02/24 15:47:48;;;;;;;2.5;1.4;;;;;;;;;;;;;
2024/02/24 15:50:13;;;;;;;3.6;2.1;;;;;;;;;;;;;
2024/02/24 15:52:38;;;;;;;2.1;1.7;;;;;;;;;;;;;
2024/02/24 15:55:03;;;;;;;1.5;1.3;;;;;;;;;;;;;
2024/02/24 15:57:28;;;;;;;2.4;1.4;;;;;;;;;;;;;
2024/02/24 15:59:53;;;;;;;1.8;1;;;;;;;;;;;;;
2024/02/24 16:02:18;;;;;;;2.5;1.7;;;;;;;;;;;;;
2024/02/24 16:04:44;;;;;;;2.2;1.7;;;;;;;;;;;;;
2024/02/24 16:07:08;;;;;;;1.6;1.2;;;;;;;;;;;;;
2024/02/24 16:09:35;;;;;;;2.8;1.5;;;;;;;;;;;;;
2024/02/24 16:11:58;;;;;;;4.2;1.6;;;;;;;;;;;;;
2024/02/24 16:14:24;;;;;;;3.8;1.8;;;;;;;;;;;;;
2024/02/24 16:16:49;;;;;;;4.6;3;;;;;;;;;;;;;
2024/02/24 16:19:14;;;;;;;2.5;1.9;;;;;;;;;;;;;
2024/02/24 16:21:39;;;;;;;3.4;2;;;;;;;;;;;;;
2024/02/24 16:24:05;;;;;;;3.8;2.3;;;;;;;;;;;;;
2024/02/24 16:26:31;;;;;;;2.3;2;;;;;;;;;;;;;
2024/02/24 16:28:55;;;;;;;4.2;2.4;;;;;;;;;;;;;
2024/02/24 16:31:20;;;;;;;2.1;1.9;;;;;;;;;;;;;
2024/02/24 16:33:45;;;;;;;2.4;1.4;;;;;;;;;;;;;
2024/02/24 16:36:11;;;;;;;2.1;1.7;;;;;;;;;;;;;
2024/02/24 16:38:36;;;;;;;3.2;2.1;;;;;;;;;;;;;
2024/02/24 16:41:01;;;;;;;6.7;4;;;;;;;;;;;;;
2024/02/24 16:43:26;;;;;;;6;4.1;;;;;;;;;;;;;
2024/02/24 16:45:51;;;;;;;5.4;3.9;;;;;;;;;;;;;
2024/02/24 16:48:17;;;;;;;4.1;2.6;;;;;;;;;;;;;
2024/02/24 16:50:42;;;;;;;4.3;2.4;;;;;;;;;;;;;
2024/02/24 16:53:07;;;;;;;4;2.8;;;;;;;;;;;;;
2024/02/24 16:55:32;;;;;;;4.7;2.5;;;;;;;;;;;;;
2024/02/24 16:57:57;;;;;;;5.3;3.5;;;;;;;;;;;;;
2024/02/24 17:00:22;;;;;;;5.1;3.3;;;;;;;;;;;;;
2024/02/24 17:02:48;;;;;;;6.3;4.2;;;;;;;;;;;;;
2024/02/24 17:05:12;;;;;;;3.8;3.1;;;;;;;;;;;;;
2024/02/24 17:07:37;;;;;;;5.6;3.6;;;;;;;;;;;;;
2024/02/24 17:10:02;;;;;;;6.8;3.8;;;;;;;;;;;;;
2024/02/24 17:12:27;;;;;;;6.5;4.2;;;;;;;;;;;;;
2024/02/24 17:14:53;;;;;;;4.8;3.4;;;;;;;;;;;;;
2024/02/24 17:17:18;;;;;;;8.8;4.7;;;;;;;;;;;;;
2024/02/24 17:19:43;;;;;;;6.1;4.1;;;;;;;;;;;;;
2024/02/24 17:22:08;;;;;;;6.6;4.4;;;;;;;;;;;;;
2024/02/24 17:24:34;;;;;;;6.8;4;;;;;;;;;;;;;
2024/02/24 17:27:00;;;;;;;5.2;3.2;;;;;;;;;;;;;
2024/02/24 17:29:24;;;;;;;5.2;2.9;;;;;;;;;;;;;
2024/02/24 17:31:49;;;;;;;4.6;2.9;;;;;;;;;;;;;
2024/02/24 17:34:15;;;;;;;5.3;2.9;;;;;;;;;;;;;
2024/02/24 17:36:41;;;;;;;5.1;3.1;;;;;;;;;;;;;
2024/02/24 17:39:06;;;;;;;4.4;3;;;;;;;;;;;;;
2024/02/24 17:41:31;;;;;;;6;3.4;;;;;;;;;;;;;
2024/02/24 17:43:56;;;;;;;4.9;3.1;;;;;;;;;;;;;
2024/02/24 17:46:22;;;;;;;4.8;3.4;;;;;;;;;;;;;
2024/02/24 17:48:47;;;;;;;6.2;3.9;;;;;;;;;;;;;
2024/02/24 17:51:12;;;;;;;5.7;3.6;;;;;;;;;;;;;
2024/02/24 17:53:37;;;;;;;5;3.8;;;;;;;;;;;;;
2024/02/24 17:56:02;;;;;;;5.5;4.1;;;;;;;;;;;;;
2024/02/24 17:58:28;;;;;;;5;3.4;;;;;;;;;;;;;
2024/02/24 18:00:53;;;;;;;3.7;2.9;;;;;;;;;;;;;
2024/02/24 18:03:19;;;;;;;5.2;3.5;;;;;;;;;;;;;
2024/02/24 18:05:43;;;;;;;4.1;3.1;;;;;;;;;;;;;
2024/02/24 18:08:08;;;;;;;5.3;3.2;;;;;;;;;;;;;
2024/02/24 18:10:33;;;;;;;5.4;3.9;;;;;;;;;;;;;
2024/02/24 18:12:59;;;;;;;30.6;16.5;;;;;;;;;;;;;
2024/02/24 18:15:24;;;;;;;59.8;36.8;;;;;;;;;;;;;
2024/02/24 18:17:49;;;;;;;6.8;4.4;;;;;;;;;;;;;
2024/02/24 18:20:14;;;;;;;12.8;8.2;;;;;;;;;;;;;
2024/02/24 18:22:39;;;;;;;9.9;6.2;;;;;;;;;;;;;
2024/02/24 18:25:04;;;;;;;7.8;5;;;;;;;;;;;;;
2024/02/24 18:27:31;;;;;;;10.9;7.4;;;;;;;;;;;;;
2024/02/24 18:29:56;;;;;;;7.9;4.9;;;;;;;;;;;;;
2024/02/24 18:32:21;;;;;;;7;5.1;;;;;;;;;;;;;
2024/02/24 18:34:46;;;;;;;11;6.5;;;;;;;;;;;;;
2024/02/24 18:37:14;;;;;;;7.1;5;;;;;;;;;;;;;
2024/02/24 18:39:39;;;;;;;10.1;5.8;;;;;;;;;;;;;
2024/02/24 18:42:04;;;;;;;12.8;7.5;;;;;;;;;;;;;
2024/02/24 18:44:29;;;;;;;9;6.3;;;;;;;;;;;;;
2024/02/24 18:46:56;;;;;;;13.1;7.6;;;;;;;;;;;;;
2024/02/24 18:49:22;;;;;;;18.1;10.2;;;;;;;;;;;;;
2024/02/24 18:51:46;;;;;;;12.9;7.6;;;;;;;;;;;;;
2024/02/24 18:54:11;;;;;;;10.8;6.2;;;;;;;;;;;;;
2024/02/24 18:56:37;;;;;;;8.4;5.7;;;;;;;;;;;;;
2024/02/24 18:59:04;;;;;;;12.8;7.6;;;;;;;;;;;;;
2024/02/24 19:01:28;;;;;;;12.7;8;;;;;;;;;;;;;
2024/02/24 19:03:53;;;;;;;14.7;8;;;;;;;;;;;;;
2024/02/24 19:06:19;;;;;;;7.4;4.8;;;;;;;;;;;;;
2024/02/24 19:08:43;;;;;;;6.3;4.5;;;;;;;;;;;;;
2024/02/24 19:11:08;;;;;;;7.7;5.2;;;;;;;;;;;;;
2024/02/24 19:13:34;;;;;;;7.2;4.8;;;;;;;;;;;;;
2024/02/24 19:16:00;;;;;;;10.1;6.4;;;;;;;;;;;;;
2024/02/24 19:18:25;;;;;;;15.7;9.4;;;;;;;;;;;;;
2024/02/24 19:20:50;;;;;;;15.3;8.4;;;;;;;;;;;;;
2024/02/24 19:23:17;;;;;;;11.6;7.1;;;;;;;;;;;;;
2024/02/24 19:25:40;;;;;;;10.9;7;;;;;;;;;;;;;
2024/02/24 19:28:05;;;;;;;5.5;4.3;;;;;;;;;;;;;
2024/02/24 19:30:31;;;;;;;5.1;3.5;;;;;;;;;;;;;
2024/02/24 19:32:57;;;;;;;5.6;3.9;;;;;;;;;;;;;
2024/02/24 19:35:21;;;;;;;6.7;5.4;;;;;;;;;;;;;
2024/02/24 19:37:48;;;;;;;7.4;5.8;;;;;;;;;;;;;
2024/02/24 19:40:14;;;;;;;5.5;4.8;;;;;;;;;;;;;
2024/02/24 19:42:37;;;;;;;5.2;3.7;;;;;;;;;;;;;
2024/02/24 19:45:02;;;;;;;6.3;3.9;;;;;;;;;;;;;
2024/02/24 19:47:28;;;;;;;6.5;4.2;;;;;;;;;;;;;
2024/02/24 19:49:54;;;;;;;5.1;3.5;;;;;;;;;;;;;
2024/02/24 19:52:20;;;;;;;5.1;3;;;;;;;;;;;;;
2024/02/24 19:54:48;;;;;;;62.4;41.1;;;;;;;;;;;;;
2024/02/24 19:57:09;;;;;;;42.2;29.3;;;;;;;;;;;;;
2024/02/24 19:59:38;;;;;;;9.9;7.2;;;;;;;;;;;;;
2024/02/24 20:01:59;;;;;;;5.5;3.6;;;;;;;;;;;;;
2024/02/24 20:04:25;;;;;;;7.2;5;;;;;;;;;;;;;
2024/02/24 20:06:50;;;;;;;9.2;5.7;;;;;;;;;;;;;
2024/02/24 20:09:16;;;;;;;16.2;13.6;;;;;;;;;;;;;
2024/02/24 20:11:40;;;;;;;18.8;12.4;;;;;;;;;;;;;
2024/02/24 20:14:37;;;;;;;16;9.1;;;;;;;;;;;;;
2024/02/24 20:17:10;;;;;;;13.6;7.9;;;;;;;;;;;;;
2024/02/24 20:19:43;;;;;;;9.6;5.8;;;;;;;;;;;;;
2024/02/24 20:22:16;;;;;;;9.1;5.3;;;;;;;;;;;;;
2024/02/24 20:24:48;;;;;;;10.6;6.9;;;;;;;;;;;;;
2024/02/24 20:27:21;;;;;;;8.5;6;;;;;;;;;;;;;
2024/02/24 20:29:53;;;;;;;9.9;6.6;;;;;;;;;;;;;
2024/02/24 20:32:25;;;;;;;12.8;6.9;;;;;;;;;;;;;
2024/02/24 20:34:57;;;;;;;11.1;6.6;;;;;;;;;;;;;